createdAt,value
2022-12-11T00:00:53.001Z,269.83
2022-12-11T00:03:20.855Z,200.77
2022-12-11T00:05:48.300Z,278.42
2022-12-11T00:08:15.800Z,447.25
2022-12-11T00:10:50.231Z,312.35
2022-12-11T00:13:18.558Z,264.83
2022-12-11T00:15:46.010Z,310.60
2022-12-11T00:18:15.183Z,414.73
2022-12-11T00:20:43.219Z,294.55
2022-12-11T00:23:11.332Z,351.33
2022-12-11T00:25:46.477Z,459.25
2022-12-11T00:28:17.272Z,268.33
2022-12-11T00:30:45.025Z,455.35
2022-12-11T00:33:13.768Z,239.48
2022-12-11T00:35:48.722Z,197.20
2022-12-11T00:38:18.314Z,213.35
2022-12-11T00:40:45.724Z,405.20
2022-12-11T00:43:13.483Z,284.90
2022-12-11T00:45:46.060Z,189.00
2022-12-11T00:48:14.598Z,269.63
2022-12-11T00:50:42.690Z,303.38
2022-12-11T00:53:10.527Z,166.50
2022-12-11T00:55:39.919Z,185.60
2022-12-11T00:58:08.224Z,286.70
2022-12-11T01:00:36.056Z,191.02
2022-12-11T01:03:04.069Z,87.80
2022-12-11T01:05:32.168Z,116.90
2022-12-11T01:08:00.658Z,294.80
2022-12-11T01:10:28.469Z,300.00
2022-12-11T01:12:58.643Z,169.52
2022-12-11T01:15:29.390Z,210.77
2022-12-11T01:17:57.128Z,173.40
2022-12-11T01:20:26.383Z,134.73
2022-12-11T01:22:58.550Z,197.65
2022-12-11T01:25:27.088Z,111.43
2022-12-11T01:27:56.142Z,279.95
2022-12-11T01:30:26.097Z,184.30
2022-12-11T01:32:53.535Z,313.05
2022-12-11T01:35:21.097Z,100.22
2022-12-11T01:37:49.237Z,245.27
2022-12-11T01:40:19.198Z,104.88
2022-12-11T01:42:47.250Z,194.93
2022-12-11T01:45:31.332Z,111.20
2022-12-11T01:48:11.719Z,266.98
2022-12-11T01:50:58.775Z,124.68
2022-12-11T01:53:31.576Z,201.85
2022-12-11T01:55:59.961Z,162.17
2022-12-11T01:58:32.557Z,212.13
2022-12-11T02:01:03.083Z,236.27
2022-12-11T02:03:30.923Z,89.03
2022-12-11T02:06:02.249Z,220.70
2022-12-11T02:08:30.232Z,232.30
2022-12-11T02:11:06.453Z,201.27
2022-12-11T02:13:52.439Z,196.65
2022-12-11T02:16:37.182Z,223.48
2022-12-11T02:19:37.000Z,116.78
2022-12-11T02:22:09.292Z,290.90
2022-12-11T02:25:01.219Z,179.50
2022-12-11T02:27:47.560Z,115.57
2022-12-11T02:30:17.469Z,162.35
2022-12-11T02:32:57.947Z,144.18
2022-12-11T02:35:31.824Z,380.70
2022-12-11T02:38:08.435Z,214.00
2022-12-11T02:40:39.534Z,219.60
2022-12-11T02:43:09.683Z,182.40
2022-12-11T02:45:39.413Z,148.90
2022-12-11T02:48:08.531Z,280.60
2022-12-11T02:50:38.468Z,204.82
2022-12-11T02:53:07.564Z,141.90
2022-12-11T02:55:37.680Z,354.60
2022-12-11T02:58:13.272Z,233.85
2022-12-11T03:00:40.963Z,253.90
2022-12-11T03:03:08.499Z,197.85
2022-12-11T03:05:35.972Z,386.05
2022-12-11T03:08:03.501Z,140.10
2022-12-11T03:10:30.887Z,115.78
2022-12-11T03:12:59.975Z,231.47
2022-12-11T03:16:04.400Z,254.90
2022-12-11T03:18:41.576Z,302.45
2022-12-11T03:21:27.729Z,179.43
2022-12-11T03:24:04.028Z,186.63
2022-12-11T03:26:36.268Z,59.70
2022-12-11T03:29:08.896Z,115.88
2022-12-11T03:31:55.018Z,103.05
2022-12-11T03:34:33.910Z,103.65
2022-12-11T03:37:05.572Z,78.75
2022-12-11T03:39:37.490Z,89.67
2022-12-11T03:42:09.136Z,125.78
2022-12-11T03:44:37.324Z,53.20
2022-12-11T03:47:08.756Z,118.10
2022-12-11T03:49:42.036Z,58.80
2022-12-11T03:52:13.000Z,106.70
2022-12-11T03:54:43.127Z,77.72
2022-12-11T03:57:17.562Z,90.88
2022-12-11T03:59:45.521Z,40.00
2022-12-11T04:02:12.951Z,107.70
2022-12-11T04:04:44.509Z,48.07
2022-12-11T04:07:12.174Z,137.55
2022-12-11T04:09:39.509Z,48.70
2022-12-11T04:12:06.968Z,70.15
2022-12-11T04:14:52.486Z,35.33
2022-12-11T04:17:38.204Z,170.97
2022-12-11T04:20:25.111Z,134.90
2022-12-11T04:23:11.000Z,89.90
2022-12-11T04:25:38.368Z,104.07
2022-12-11T04:28:05.860Z,74.88
2022-12-11T04:30:34.506Z,99.53
2022-12-11T04:33:02.254Z,204.95
2022-12-11T04:35:31.353Z,161.48
2022-12-11T04:37:59.243Z,177.40
2022-12-11T04:40:26.618Z,99.63
2022-12-11T04:42:54.027Z,87.07
2022-12-11T04:45:21.608Z,188.98
2022-12-11T04:47:48.959Z,102.40
2022-12-11T04:50:16.944Z,80.18
2022-12-11T04:52:44.718Z,271.75
2022-12-11T04:55:12.491Z,87.00
2022-12-11T04:57:40.041Z,88.80
2022-12-11T05:00:09.920Z,135.35
2022-12-11T05:02:42.162Z,40.58
2022-12-11T05:05:11.186Z,156.60
2022-12-11T05:07:39.460Z,174.37
2022-12-11T05:10:07.737Z,34.42
2022-12-11T05:12:35.490Z,131.05
2022-12-11T05:15:02.884Z,46.58
2022-12-11T05:17:30.187Z,39.85
2022-12-11T05:19:57.584Z,47.30
2022-12-11T05:22:24.891Z,41.60
2022-12-11T05:24:52.228Z,51.58
2022-12-11T05:27:19.592Z,46.38
2022-12-11T05:29:47.029Z,143.40
2022-12-11T05:32:14.393Z,106.73
2022-12-11T05:34:41.724Z,209.90
2022-12-11T05:37:09.098Z,66.75
2022-12-11T05:39:36.480Z,88.65
2022-12-11T05:42:04.046Z,126.55
2022-12-11T05:44:32.462Z,197.63
2022-12-11T05:47:00.389Z,262.88
2022-12-11T05:49:30.963Z,61.97
2022-12-11T05:51:58.674Z,75.65
2022-12-11T05:54:26.037Z,72.95
2022-12-11T05:56:53.647Z,130.90
2022-12-11T05:59:21.143Z,84.53
2022-12-11T06:01:48.604Z,181.73
2022-12-11T06:04:15.993Z,91.55
2022-12-11T06:06:44.108Z,67.60
2022-12-11T06:09:16.971Z,40.87
2022-12-11T06:11:44.341Z,48.97
2022-12-11T06:14:13.364Z,166.05
2022-12-11T06:16:41.251Z,196.73
2022-12-11T06:19:15.015Z,89.35
2022-12-11T06:21:42.788Z,112.30
2022-12-11T06:24:11.415Z,187.52
2022-12-11T06:26:38.794Z,117.03
2022-12-11T06:29:10.960Z,144.32
2022-12-11T06:31:40.531Z,111.75
2022-12-11T06:34:16.264Z,35.13
2022-12-11T06:36:43.733Z,78.47
2022-12-11T06:39:11.073Z,47.72
2022-12-11T06:41:38.572Z,107.78
2022-12-11T06:44:05.902Z,69.32
2022-12-11T06:46:33.224Z,89.53
2022-12-11T06:49:00.554Z,142.43
2022-12-11T06:51:27.820Z,167.27
2022-12-11T06:53:57.344Z,79.07
2022-12-11T06:56:25.594Z,100.00
2022-12-11T06:58:53.421Z,127.47
2022-12-11T07:01:26.386Z,66.57
2022-12-11T07:03:55.436Z,58.13
2022-12-11T07:06:23.213Z,76.97
2022-12-11T07:08:50.823Z,77.40
2022-12-11T07:11:19.839Z,105.67
2022-12-11T07:13:47.819Z,169.73
2022-12-11T07:16:17.335Z,147.02
2022-12-11T07:18:48.408Z,155.70
2022-12-11T07:21:15.937Z,109.65
2022-12-11T07:23:43.589Z,126.77
2022-12-11T07:26:14.477Z,70.60
2022-12-11T07:28:42.583Z,82.13
2022-12-11T07:31:15.369Z,66.50
2022-12-11T07:33:43.427Z,146.80
2022-12-11T07:36:12.975Z,60.83
2022-12-11T07:38:41.652Z,34.83
2022-12-11T07:41:12.650Z,49.95
2022-12-11T07:43:40.379Z,69.65
2022-12-11T07:46:11.414Z,47.42
2022-12-11T07:48:40.510Z,87.40
2022-12-11T07:51:28.133Z,65.82
2022-12-11T07:54:01.317Z,107.25
2022-12-11T07:56:30.148Z,49.83
2022-12-11T07:59:02.773Z,28.52
2022-12-11T08:01:32.968Z,124.60
2022-12-11T08:04:00.956Z,82.57
2022-12-11T08:06:31.003Z,46.95
2022-12-11T08:09:00.298Z,93.65
2022-12-11T08:11:28.410Z,113.82
2022-12-11T08:13:56.091Z,44.33
2022-12-11T08:16:23.744Z,115.55
2022-12-11T08:18:51.749Z,121.65
2022-12-11T08:21:21.937Z,79.72
2022-12-11T08:23:50.049Z,99.38
2022-12-11T08:26:29.520Z,120.67
2022-12-11T08:28:57.286Z,103.47
2022-12-11T08:31:25.107Z,55.08
2022-12-11T08:33:53.229Z,129.73
2022-12-11T08:36:22.363Z,53.08
2022-12-11T08:38:50.670Z,117.57
2022-12-11T08:41:25.862Z,152.90
2022-12-11T08:43:55.405Z,150.18
2022-12-11T08:46:25.264Z,105.57
2022-12-11T08:48:53.475Z,99.78
2022-12-11T08:51:24.420Z,30.63
2022-12-11T08:53:54.518Z,137.40
2022-12-11T08:56:23.876Z,109.00
2022-12-11T08:58:52.061Z,129.05
2022-12-11T09:01:25.018Z,40.03
2022-12-11T09:03:54.240Z,118.90
2022-12-11T09:06:24.182Z,79.85
2022-12-11T09:08:53.393Z,82.85
2022-12-11T09:11:23.764Z,65.07
2022-12-11T09:13:51.087Z,127.65
2022-12-11T09:16:20.866Z,139.50
2022-12-11T09:18:49.883Z,226.32
2022-12-11T09:21:20.668Z,84.43
2022-12-11T09:23:48.440Z,116.53
2022-12-11T09:26:17.452Z,193.63
2022-12-11T10:07:54.265Z,121.57
2022-12-11T10:10:43.204Z,122.65
2022-12-11T10:13:49.672Z,170.68
2022-12-11T10:16:49.240Z,105.95
2022-12-11T10:19:28.243Z,70.03
2022-12-11T10:21:56.704Z,91.97
2022-12-11T10:27:34.781Z,251.45
2022-12-11T10:30:16.556Z,127.25
2022-12-11T10:33:02.652Z,142.40
2022-12-11T10:35:45.919Z,61.13
2022-12-11T10:38:21.514Z,157.88
2022-12-11T10:40:58.509Z,46.13
2022-12-11T10:43:48.397Z,43.97
2022-12-11T10:46:24.846Z,79.53
2022-12-11T10:48:55.811Z,58.40
2022-12-11T10:51:26.713Z,41.90
2022-12-11T10:53:58.721Z,70.15
2022-12-11T10:56:31.268Z,24.52
2022-12-11T10:59:00.665Z,29.77
2022-12-11T12:16:01.916Z,25.30
2022-12-11T12:18:32.599Z,13.23
2022-12-11T12:21:18.251Z,12.55
2022-12-11T12:24:12.130Z,7.15
2022-12-11T12:26:45.572Z,9.90
2022-12-11T12:29:43.382Z,6.95
2022-12-11T12:32:16.627Z,12.25
2022-12-11T12:34:49.905Z,17.13
2022-12-11T12:37:46.748Z,13.23
2022-12-11T12:40:34.859Z,17.93
2022-12-11T12:43:20.112Z,5.28
2022-12-11T12:46:02.093Z,5.13
2022-12-11T12:48:31.464Z,15.38
2022-12-11T12:50:59.596Z,6.97
2022-12-11T12:53:32.732Z,7.27
2022-12-11T12:56:01.791Z,6.18
2022-12-11T12:58:30.750Z,4.70
2022-12-11T13:01:20.883Z,5.07
2022-12-11T13:03:54.889Z,4.55
2022-12-11T13:06:39.284Z,4.10
2022-12-11T13:09:25.163Z,4.75
2022-12-11T13:11:58.046Z,3.47
2022-12-11T13:14:32.361Z,4.00
2022-12-11T13:17:36.747Z,4.00
2022-12-11T13:20:18.323Z,4.67
2022-12-11T13:22:51.167Z,4.72
2022-12-11T13:25:31.116Z,5.20
2022-12-11T13:28:22.341Z,5.88
2022-12-11T13:31:01.685Z,5.05
2022-12-11T13:33:33.223Z,5.33
2022-12-11T13:36:25.066Z,5.13
2022-12-11T13:39:01.137Z,4.65
2022-12-11T13:41:30.430Z,4.88
2022-12-11T13:43:58.860Z,4.43
2022-12-11T13:46:30.098Z,5.33
2022-12-11T13:49:01.589Z,4.95
2022-12-11T13:51:32.080Z,5.70
2022-12-11T13:54:16.322Z,12.98
2022-12-11T13:56:59.916Z,7.05
2022-12-11T13:59:41.392Z,8.30
2022-12-11T14:02:35.273Z,8.15
2022-12-11T14:05:08.632Z,9.18
2022-12-11T14:07:41.264Z,7.60
2022-12-11T14:10:23.167Z,5.95
2022-12-11T14:13:04.573Z,7.60
2022-12-11T14:15:33.896Z,6.22
2022-12-11T14:18:01.756Z,5.60
2022-12-11T14:20:32.121Z,4.72
2022-12-11T14:23:26.613Z,5.03
2022-12-11T14:26:01.544Z,5.77
2022-12-11T14:28:37.745Z,5.35
2022-12-11T14:31:06.894Z,5.95
2022-12-11T14:33:46.103Z,8.10
2022-12-11T14:36:15.608Z,33.33
2022-12-11T14:39:05.290Z,6.10
2022-12-11T14:42:04.959Z,6.40
2022-12-11T14:44:48.175Z,19.27
2022-12-11T14:47:22.714Z,8.80
2022-12-11T14:49:56.569Z,13.88
2022-12-11T14:52:30.521Z,6.00
2022-12-11T14:55:05.548Z,22.77
2022-12-11T14:57:34.447Z,5.20
2022-12-11T15:00:02.464Z,6.43
2022-12-11T15:02:34.852Z,6.88
2022-12-11T15:05:04.404Z,4.93
2022-12-11T15:07:32.281Z,6.10
2022-12-11T15:09:59.654Z,10.02
2022-12-11T15:12:28.722Z,6.07
2022-12-11T15:14:59.355Z,5.53
2022-12-11T15:17:28.437Z,6.13
2022-12-11T15:20:08.916Z,29.23
2022-12-11T15:22:37.288Z,5.38
2022-12-11T15:25:06.201Z,5.55
2022-12-11T15:27:36.999Z,4.97
2022-12-11T15:30:20.369Z,4.60
2022-12-11T15:32:48.149Z,5.72
2022-12-11T15:35:27.381Z,9.07
2022-12-11T15:37:56.703Z,5.90
2022-12-11T15:40:24.753Z,7.90
2022-12-11T15:42:53.595Z,7.47
2022-12-11T15:45:31.220Z,5.50
2022-12-11T15:47:59.747Z,6.20
2022-12-11T15:50:29.422Z,5.65
2022-12-11T15:52:57.766Z,5.60
2022-12-11T15:55:27.830Z,4.87
2022-12-11T15:57:59.440Z,6.30
2022-12-11T16:00:28.472Z,4.05
2022-12-11T16:02:57.353Z,4.63
2022-12-11T16:05:26.031Z,4.60
2022-12-11T16:07:54.966Z,5.20
2022-12-11T16:10:22.928Z,3.67
2022-12-11T16:12:50.507Z,6.75
2022-12-11T16:15:23.626Z,4.30
2022-12-11T16:18:01.229Z,4.95
2022-12-11T16:20:29.329Z,5.53
2022-12-11T16:22:56.865Z,5.40
2022-12-11T16:25:25.169Z,8.32
2022-12-11T16:27:55.312Z,6.38
2022-12-11T16:30:22.867Z,6.63
2022-12-11T16:32:50.330Z,12.10
2022-12-11T16:35:17.897Z,5.55
2022-12-11T16:37:45.630Z,5.93
2022-12-11T16:40:13.032Z,6.00
2022-12-11T16:42:40.401Z,11.10
2022-12-11T16:45:12.553Z,4.83
2022-12-11T16:47:40.060Z,5.40
2022-12-11T16:50:08.158Z,8.45
2022-12-11T16:54:26.040Z,4.63
2022-12-11T16:56:53.433Z,4.60
2022-12-11T16:59:20.865Z,5.30
2022-12-11T17:01:51.098Z,4.65
2022-12-11T17:04:18.604Z,7.10
2022-12-11T17:06:46.645Z,9.03
2022-12-11T17:09:13.934Z,6.65
2022-12-11T17:11:41.207Z,5.13
2022-12-11T17:14:12.708Z,5.85
2022-12-11T17:16:40.053Z,5.35
2022-12-11T17:19:07.724Z,6.53
2022-12-11T17:21:35.381Z,6.70
2022-12-11T17:24:02.772Z,7.32
2022-12-11T17:26:30.821Z,5.85
2022-12-11T17:28:58.549Z,6.95
2022-12-11T17:31:26.017Z,7.37
2022-12-11T17:33:54.341Z,6.05
2022-12-11T17:36:22.931Z,5.75
2022-12-11T17:38:50.585Z,6.32
2022-12-11T17:41:20.731Z,9.15
2022-12-11T17:43:50.198Z,4.90
2022-12-11T17:46:18.483Z,5.15
2022-12-11T17:48:46.742Z,6.30
2022-12-11T17:51:21.267Z,6.22
2022-12-11T17:53:48.733Z,5.32
2022-12-11T17:56:16.752Z,5.57
2022-12-11T17:58:44.241Z,6.10
2022-12-11T18:01:13.484Z,6.18
2022-12-11T18:03:41.883Z,8.85
2022-12-11T18:06:13.311Z,10.50
2022-12-11T18:08:41.598Z,10.27
2022-12-11T18:11:12.273Z,9.23
2022-12-11T18:13:39.955Z,8.48
2022-12-11T18:16:12.947Z,9.65
2022-12-11T18:18:47.862Z,10.38
2022-12-11T18:21:18.084Z,6.83
2022-12-11T18:23:45.723Z,6.38
2022-12-11T18:26:14.834Z,6.88
2022-12-11T18:28:43.216Z,11.57
2022-12-11T18:31:10.935Z,9.73
2022-12-11T18:33:39.994Z,9.23
2022-12-11T18:36:11.380Z,10.13
2022-12-11T18:38:39.956Z,8.10
2022-12-11T18:41:10.647Z,7.32
2022-12-11T18:43:46.032Z,9.43
2022-12-11T18:46:20.177Z,25.37
2022-12-11T18:48:54.816Z,16.30
2022-12-11T18:51:26.127Z,8.30
2022-12-11T18:53:53.838Z,5.90
2022-12-11T18:56:22.343Z,7.55
2022-12-11T18:58:50.713Z,9.10
2022-12-11T19:01:21.698Z,12.98
2022-12-11T19:03:51.575Z,8.18
2022-12-11T19:06:21.514Z,8.15
2022-12-11T19:08:48.899Z,7.97
2022-12-11T19:11:22.255Z,7.40
2022-12-11T19:13:50.402Z,8.63
2022-12-11T19:16:26.843Z,9.77
2022-12-11T19:18:54.571Z,7.57
2022-12-11T19:21:22.228Z,7.35
2022-12-11T19:23:50.180Z,7.67
2022-12-11T19:26:20.837Z,9.15
2022-12-11T19:28:49.941Z,21.98
2022-12-11T19:31:20.686Z,22.90
2022-12-11T19:33:48.107Z,9.02
2022-12-11T19:36:18.864Z,35.23
2022-12-11T19:38:46.625Z,17.63
2022-12-11T19:41:19.263Z,18.50
2022-12-11T19:43:47.229Z,27.70
2022-12-11T19:46:16.218Z,20.65
2022-12-11T19:48:44.050Z,24.90
2022-12-11T19:51:13.734Z,19.20
2022-12-11T19:53:42.893Z,25.23
2022-12-11T19:56:10.883Z,19.85
2022-12-11T19:58:39.006Z,26.05
2022-12-11T20:01:07.684Z,21.37
2022-12-11T20:03:41.100Z,23.63
2022-12-11T20:06:10.618Z,23.65
2022-12-11T20:08:46.263Z,23.55
2022-12-11T20:11:18.297Z,28.38
2022-12-11T20:13:47.359Z,17.87
2022-12-11T20:16:17.123Z,19.98
2022-12-11T20:18:46.177Z,18.10
2022-12-11T20:21:16.075Z,18.60
2022-12-11T20:23:44.340Z,21.75
2022-12-11T20:26:17.649Z,16.50
2022-12-11T20:28:48.355Z,19.40
2022-12-11T20:31:20.359Z,21.75
2022-12-11T20:33:49.465Z,18.65
2022-12-11T20:36:25.889Z,24.98
2022-12-11T20:38:55.816Z,24.33
2022-12-11T20:41:28.945Z,34.20
2022-12-11T20:44:13.928Z,44.88
2022-12-11T20:46:44.756Z,39.53
2022-12-11T20:49:27.346Z,49.17
2022-12-11T20:51:57.809Z,44.70
2022-12-11T20:54:59.969Z,45.65
2022-12-11T20:57:27.537Z,52.30
2022-12-11T20:59:55.249Z,46.10
2022-12-11T21:02:22.890Z,48.80
2022-12-11T21:04:50.828Z,51.13
2022-12-11T21:07:20.283Z,36.78
2022-12-11T21:09:48.403Z,44.33
2022-12-11T21:12:15.777Z,44.08
2022-12-11T21:14:43.158Z,49.70
2022-12-11T21:17:13.243Z,53.73
2022-12-11T21:19:41.078Z,56.80
2022-12-11T21:22:08.395Z,52.35
2022-12-11T21:24:35.781Z,44.38
2022-12-11T21:27:04.103Z,39.55
2022-12-11T21:29:31.619Z,36.83
2022-12-11T21:31:59.138Z,46.75
2022-12-11T21:34:27.527Z,70.05
2022-12-11T21:36:57.311Z,64.95
2022-12-11T21:39:26.701Z,39.22
2022-12-11T21:41:54.549Z,35.50
2022-12-11T21:47:09.928Z,35.90
2022-12-11T21:49:38.213Z,23.75
2022-12-11T21:52:06.474Z,57.92
2022-12-11T21:54:33.867Z,29.17
2022-12-11T21:57:01.505Z,29.45
2022-12-11T21:59:29.415Z,36.47
2022-12-11T22:01:57.241Z,30.98
2022-12-11T22:04:24.895Z,35.00
2022-12-11T22:06:52.911Z,39.70
2022-12-11T22:09:20.288Z,40.00
2022-12-11T22:11:48.175Z,32.47
2022-12-11T22:14:18.403Z,32.72
2022-12-11T22:16:46.287Z,75.10
2022-12-11T22:19:13.961Z,36.93
2022-12-11T22:21:41.438Z,30.88
2022-12-11T22:24:09.593Z,34.22
2022-12-11T22:26:37.305Z,39.97
2022-12-11T22:29:04.958Z,52.70
2022-12-11T22:31:32.774Z,33.50
2022-12-11T22:34:00.520Z,46.78
2022-12-11T22:36:28.075Z,49.33
2022-12-11T22:38:56.035Z,44.50
2022-12-11T22:41:27.471Z,40.67
2022-12-11T22:43:56.077Z,48.17
2022-12-11T22:46:26.663Z,42.92
2022-12-11T22:48:54.608Z,41.33
2022-12-11T22:51:22.460Z,55.13
2022-12-11T22:53:49.815Z,47.08
2022-12-11T22:56:17.542Z,45.20
2022-12-11T22:58:44.965Z,59.38
2022-12-11T23:01:16.243Z,53.40
2022-12-11T23:03:43.700Z,52.88
2022-12-11T23:06:13.864Z,66.07
2022-12-11T23:08:42.597Z,59.10
2022-12-11T23:11:20.112Z,43.97
2022-12-11T23:13:48.237Z,31.23
2022-12-11T23:16:15.760Z,43.25
2022-12-11T23:18:43.887Z,38.45
2022-12-11T23:21:13.039Z,41.53
2022-12-11T23:23:40.945Z,40.83
2022-12-11T23:26:10.215Z,39.05
2022-12-11T23:28:38.275Z,38.33
2022-12-11T23:31:06.476Z,37.67
2022-12-11T23:33:33.888Z,36.97
2022-12-11T23:36:01.423Z,35.13
2022-12-11T23:38:29.050Z,29.40
2022-12-11T23:40:56.619Z,26.77
2022-12-11T23:43:24.253Z,32.50
2022-12-11T23:45:51.930Z,30.40
2022-12-11T23:48:20.322Z,25.00
2022-12-11T23:50:48.468Z,33.28
2022-12-11T23:53:15.844Z,30.70
2022-12-11T23:55:45.062Z,31.30
2022-12-11T23:58:13.018Z,31.90
